sensor_id;sensor_type;location;lat;lon;timestamp;pressure;altitude;pressure_sealevel;temperature;humidity
19884;BME280;10104;50.732;10.174;2024-02-21T00:02:20;98617.56;;;7.23;100.00
19884;BME280;10104;50.732;10.174;2024-02-21T00:05:00;98622.00;;;7.23;100.00
19884;BME280;10104;50.732;10.174;2024-02-21T00:07:41;98622.19;;;7.21;100.00
19884;BME280;10104;50.732;10.174;2024-02-21T00:10:21;98609.69;;;7.23;100.00
19884;BME280;10104;50.732;10.174;2024-02-21T00:13:02;98613.47;;;7.21;100.00
19884;BME280;10104;50.732;10.174;2024-02-21T00:15:42;98610.22;;;7.27;100.00
19884;BME280;10104;50.732;10.174;2024-02-21T00:18:22;98608.72;;;7.24;100.00
19884;BME280;10104;50.732;10.174;2024-02-21T00:21:08;98608.84;;;7.23;100.00
19884;BME280;10104;50.732;10.174;2024-02-21T00:23:49;98600.34;;;7.29;100.00
19884;BME280;10104;50.732;10.174;2024-02-21T00:26:31;98588.19;;;7.28;100.00
19884;BME280;10104;50.732;10.174;2024-02-21T00:29:11;98594.03;;;7.22;100.00
19884;BME280;10104;50.732;10.174;2024-02-21T00:31:51;98591.78;;;7.27;100.00
19884;BME280;10104;50.732;10.174;2024-02-21T00:34:31;98599.84;;;7.25;100.00
19884;BME280;10104;50.732;10.174;2024-02-21T00:37:11;98600.94;;;7.23;100.00
19884;BME280;10104;50.732;10.174;2024-02-21T00:39:51;98594.25;;;7.28;100.00
19884;BME280;10104;50.732;10.174;2024-02-21T00:42:31;98588.31;;;7.26;100.00
19884;BME280;10104;50.732;10.174;2024-02-21T00:45:11;98586.81;;;7.24;100.00
19884;BME280;10104;50.732;10.174;2024-02-21T00:47:51;98582.50;;;7.23;100.00
19884;BME280;10104;50.732;10.174;2024-02-21T00:50:32;98569.34;;;7.23;100.00
19884;BME280;10104;50.732;10.174;2024-02-21T00:53:12;98567.72;;;7.22;100.00
19884;BME280;10104;50.732;10.174;2024-02-21T00:55:52;98577.84;;;7.17;100.00
19884;BME280;10104;50.732;10.174;2024-02-21T00:58:33;98570.94;;;7.16;100.00
19884;BME280;10104;50.732;10.174;2024-02-21T01:01:21;98564.38;;;7.20;100.00
19884;BME280;10104;50.732;10.174;2024-02-21T01:04:02;98570.78;;;7.17;100.00
19884;BME280;10104;50.732;10.174;2024-02-21T01:06:43;98561.91;;;7.18;100.00
19884;BME280;10104;50.732;10.174;2024-02-21T01:09:24;98545.25;;;7.18;100.00
19884;BME280;10104;50.732;10.174;2024-02-21T01:12:04;98550.31;;;7.11;100.00
19884;BME280;10104;50.732;10.174;2024-02-21T01:14:44;98541.81;;;7.17;100.00
19884;BME280;10104;50.732;10.174;2024-02-21T01:17:26;98525.72;;;7.20;100.00
19884;BME280;10104;50.732;10.174;2024-02-21T01:20:06;98526.16;;;7.16;100.00
19884;BME280;10104;50.732;10.174;2024-02-21T01:22:46;98520.22;;;7.14;100.00
19884;BME280;10104;50.732;10.174;2024-02-21T01:25:26;98502.63;;;7.14;100.00
19884;BME280;10104;50.732;10.174;2024-02-21T01:28:07;98491.72;;;7.09;100.00
19884;BME280;10104;50.732;10.174;2024-02-21T01:30:47;98496.06;;;7.01;100.00
19884;BME280;10104;50.732;10.174;2024-02-21T01:33:27;98496.53;;;6.96;100.00
19884;BME280;10104;50.732;10.174;2024-02-21T01:36:07;98500.28;;;6.94;100.00
19884;BME280;10104;50.732;10.174;2024-02-21T01:38:47;98500.28;;;6.94;100.00
19884;BME280;10104;50.732;10.174;2024-02-21T01:41:30;98508.31;;;6.92;100.00
19884;BME280;10104;50.732;10.174;2024-02-21T01:44:10;98514.13;;;6.96;100.00
19884;BME280;10104;50.732;10.174;2024-02-21T01:46:51;98526.13;;;6.98;100.00
19884;BME280;10104;50.732;10.174;2024-02-21T01:49:32;98535.78;;;6.89;100.00
19884;BME280;10104;50.732;10.174;2024-02-21T01:52:14;98543.22;;;6.94;100.00
19884;BME280;10104;50.732;10.174;2024-02-21T01:54:54;98544.75;;;6.97;100.00
19884;BME280;10104;50.732;10.174;2024-02-21T01:57:35;98542.50;;;7.02;100.00
19884;BME280;10104;50.732;10.174;2024-02-21T02:00:16;98543.97;;;7.04;100.00
19884;BME280;10104;50.732;10.174;2024-02-21T02:02:56;98534.00;;;7.08;100.00
19884;BME280;10104;50.732;10.174;2024-02-21T02:05:36;98530.38;;;7.09;100.00
19884;BME280;10104;50.732;10.174;2024-02-21T02:08:18;98534.22;;;7.14;100.00
19884;BME280;10104;50.732;10.174;2024-02-21T02:10:59;98527.97;;;7.15;100.00
19884;BME280;10104;50.732;10.174;2024-02-21T02:13:40;98519.91;;;7.17;100.00
19884;BME280;10104;50.732;10.174;2024-02-21T02:16:20;98522.94;;;7.22;100.00
19884;BME280;10104;50.732;10.174;2024-02-21T02:19:00;98524.28;;;7.26;100.00
19884;BME280;10104;50.732;10.174;2024-02-21T02:21:43;98522.75;;;7.23;100.00
19884;BME280;10104;50.732;10.174;2024-02-21T02:24:25;98516.06;;;7.29;100.00
19884;BME280;10104;50.732;10.174;2024-02-21T02:27:06;98517.56;;;7.31;100.00
19884;BME280;10104;50.732;10.174;2024-02-21T02:29:46;98511.47;;;7.31;100.00
19884;BME280;10104;50.732;10.174;2024-02-21T02:32:26;98514.19;;;7.21;100.00
19884;BME280;10104;50.732;10.174;2024-02-21T02:35:06;98516.28;;;7.18;100.00
19884;BME280;10104;50.732;10.174;2024-02-21T02:37:50;98506.22;;;7.13;100.00
19884;BME280;10104;50.732;10.174;2024-02-21T02:40:32;98498.84;;;7.17;100.00
19884;BME280;10104;50.732;10.174;2024-02-21T02:43:13;98499.28;;;7.12;100.00
19884;BME280;10104;50.732;10.174;2024-02-21T02:45:53;98490.56;;;7.12;100.00
19884;BME280;10104;50.732;10.174;2024-02-21T02:48:33;98495.75;;;7.04;100.00
19884;BME280;10104;50.732;10.174;2024-02-21T02:51:13;98472.88;;;7.04;100.00
19884;BME280;10104;50.732;10.174;2024-02-21T02:53:53;98467.09;;;7.01;100.00
19884;BME280;10104;50.732;10.174;2024-02-21T02:56:33;98479.81;;;7.05;100.00
19884;BME280;10104;50.732;10.174;2024-02-21T02:59:14;98486.38;;;7.01;100.00
19884;BME280;10104;50.732;10.174;2024-02-21T03:01:53;98477.94;;;6.98;100.00
19884;BME280;10104;50.732;10.174;2024-02-21T03:04:34;98456.81;;;6.89;100.00
19884;BME280;10104;50.732;10.174;2024-02-21T03:07:15;98454.84;;;6.91;100.00
19884;BME280;10104;50.732;10.174;2024-02-21T03:09:55;98456.66;;;6.91;100.00
19884;BME280;10104;50.732;10.174;2024-02-21T03:12:35;98449.53;;;6.83;100.00
19884;BME280;10104;50.732;10.174;2024-02-21T03:15:16;98455.63;;;6.84;100.00
19884;BME280;10104;50.732;10.174;2024-02-21T03:17:56;98450.84;;;6.87;100.00
19884;BME280;10104;50.732;10.174;2024-02-21T03:20:36;98442.75;;;6.81;100.00
19884;BME280;10104;50.732;10.174;2024-02-21T03:23:16;98437.34;;;6.82;100.00
19884;BME280;10104;50.732;10.174;2024-02-21T03:25:56;98428.59;;;6.82;100.00
19884;BME280;10104;50.732;10.174;2024-02-21T03:28:36;98415.59;;;6.80;100.00
19884;BME280;10104;50.732;10.174;2024-02-21T03:31:16;98408.97;;;6.76;100.00
19884;BME280;10104;50.732;10.174;2024-02-21T03:33:56;98406.22;;;6.78;100.00
19884;BME280;10104;50.732;10.174;2024-02-21T03:36:36;98395.38;;;6.81;100.00
19884;BME280;10104;50.732;10.174;2024-02-21T03:39:17;98380.25;;;6.83;100.00
19884;BME280;10104;50.732;10.174;2024-02-21T03:41:57;98382.88;;;6.83;100.00
19884;BME280;10104;50.732;10.174;2024-02-21T03:44:38;98375.28;;;6.80;100.00
19884;BME280;10104;50.732;10.174;2024-02-21T03:47:18;98387.63;;;6.79;100.00
19884;BME280;10104;50.732;10.174;2024-02-21T03:49:58;98391.25;;;6.78;100.00
19884;BME280;10104;50.732;10.174;2024-02-21T03:52:40;98396.88;;;6.83;100.00
19884;BME280;10104;50.732;10.174;2024-02-21T03:55:20;98405.28;;;6.87;100.00
19884;BME280;10104;50.732;10.174;2024-02-21T03:58:02;98404.03;;;6.91;100.00
19884;BME280;10104;50.732;10.174;2024-02-21T04:00:42;98405.44;;;6.85;100.00
19884;BME280;10104;50.732;10.174;2024-02-21T04:03:22;98401.16;;;6.84;100.00
19884;BME280;10104;50.732;10.174;2024-02-21T04:06:03;98394.16;;;6.93;100.00
19884;BME280;10104;50.732;10.174;2024-02-21T04:08:43;98390.19;;;6.89;100.00
19884;BME280;10104;50.732;10.174;2024-02-21T04:11:24;98388.88;;;6.93;100.00
19884;BME280;10104;50.732;10.174;2024-02-21T04:14:05;98385.13;;;6.96;100.00
19884;BME280;10104;50.732;10.174;2024-02-21T04:16:45;98372.78;;;6.96;100.00
19884;BME280;10104;50.732;10.174;2024-02-21T04:19:25;98364.06;;;6.96;100.00
19884;BME280;10104;50.732;10.174;2024-02-21T04:22:05;98367.34;;;6.98;100.00
19884;BME280;10104;50.732;10.174;2024-02-21T04:24:45;98364.91;;;6.96;100.00
19884;BME280;10104;50.732;10.174;2024-02-21T04:27:26;98366.56;;;6.97;100.00
19884;BME280;10104;50.732;10.174;2024-02-21T04:30:07;98358.66;;;6.97;100.00
19884;BME280;10104;50.732;10.174;2024-02-21T04:32:47;98355.63;;;6.92;100.00
19884;BME280;10104;50.732;10.174;2024-02-21T04:35:27;98349.94;;;6.97;100.00
19884;BME280;10104;50.732;10.174;2024-02-21T04:38:08;98358.34;;;7.00;100.00
19884;BME280;10104;50.732;10.174;2024-02-21T04:40:48;98353.91;;;7.01;100.00
19884;BME280;10104;50.732;10.174;2024-02-21T04:43:28;98369.91;;;7.07;100.00
19884;BME280;10104;50.732;10.174;2024-02-21T04:46:08;98368.75;;;7.10;100.00
19884;BME280;10104;50.732;10.174;2024-02-21T04:48:49;98366.75;;;7.04;100.00
19884;BME280;10104;50.732;10.174;2024-02-21T04:51:29;98375.03;;;7.09;100.00
19884;BME280;10104;50.732;10.174;2024-02-21T04:54:09;98373.00;;;7.03;100.00
19884;BME280;10104;50.732;10.174;2024-02-21T04:56:50;98382.38;;;7.05;100.00
19884;BME280;10104;50.732;10.174;2024-02-21T04:59:32;98376.16;;;7.06;100.00
19884;BME280;10104;50.732;10.174;2024-02-21T05:02:13;98381.41;;;7.06;100.00
19884;BME280;10104;50.732;10.174;2024-02-21T05:04:54;98385.56;;;7.09;100.00
19884;BME280;10104;50.732;10.174;2024-02-21T05:07:35;98384.41;;;7.11;100.00
19884;BME280;10104;50.732;10.174;2024-02-21T05:10:15;98384.94;;;7.15;100.00
19884;BME280;10104;50.732;10.174;2024-02-21T05:12:55;98379.81;;;7.13;100.00
19884;BME280;10104;50.732;10.174;2024-02-21T05:15:35;98366.50;;;7.15;100.00
19884;BME280;10104;50.732;10.174;2024-02-21T05:18:15;98363.56;;;7.18;100.00
19884;BME280;10104;50.732;10.174;2024-02-21T05:20:56;98351.19;;;6.93;100.00
19884;BME280;10104;50.732;10.174;2024-02-21T05:23:36;98345.09;;;6.92;100.00
19884;BME280;10104;50.732;10.174;2024-02-21T05:26:21;98347.59;;;6.94;100.00
19884;BME280;10104;50.732;10.174;2024-02-21T05:29:02;98348.41;;;6.94;100.00
19884;BME280;10104;50.732;10.174;2024-02-21T05:31:55;98348.63;;;7.01;100.00
19884;BME280;10104;50.732;10.174;2024-02-21T05:34:37;98340.06;;;6.99;100.00
19884;BME280;10104;50.732;10.174;2024-02-21T05:37:18;98344.13;;;6.93;100.00
19884;BME280;10104;50.732;10.174;2024-02-21T05:39:58;98344.28;;;6.91;100.00
19884;BME280;10104;50.732;10.174;2024-02-21T05:42:38;98342.31;;;6.94;100.00
19884;BME280;10104;50.732;10.174;2024-02-21T05:45:18;98352.16;;;6.91;100.00
19884;BME280;10104;50.732;10.174;2024-02-21T05:47:58;98349.41;;;6.93;100.00
19884;BME280;10104;50.732;10.174;2024-02-21T05:50:39;98350.09;;;6.95;100.00
19884;BME280;10104;50.732;10.174;2024-02-21T05:53:20;98345.63;;;6.96;100.00
19884;BME280;10104;50.732;10.174;2024-02-21T05:56:00;98360.06;;;6.91;100.00
19884;BME280;10104;50.732;10.174;2024-02-21T05:58:41;98351.06;;;6.94;100.00
19884;BME280;10104;50.732;10.174;2024-02-21T06:01:21;98356.31;;;6.94;100.00
19884;BME280;10104;50.732;10.174;2024-02-21T06:04:02;98354.44;;;6.86;100.00
19884;BME280;10104;50.732;10.174;2024-02-21T06:06:42;98364.47;;;6.83;100.00
19884;BME280;10104;50.732;10.174;2024-02-21T06:09:22;98352.13;;;6.83;100.00
19884;BME280;10104;50.732;10.174;2024-02-21T06:12:03;98348.97;;;6.80;100.00
19884;BME280;10104;50.732;10.174;2024-02-21T06:14:43;98343.06;;;6.78;100.00
19884;BME280;10104;50.732;10.174;2024-02-21T06:17:23;98331.38;;;6.80;100.00
19884;BME280;10104;50.732;10.174;2024-02-21T06:20:04;98333.34;;;6.78;100.00
19884;BME280;10104;50.732;10.174;2024-02-21T06:22:44;98330.31;;;6.73;100.00
19884;BME280;10104;50.732;10.174;2024-02-21T06:25:25;98335.00;;;6.62;100.00
19884;BME280;10104;50.732;10.174;2024-02-21T06:28:05;98327.06;;;6.54;100.00
19884;BME280;10104;50.732;10.174;2024-02-21T06:30:45;98316.31;;;6.47;100.00
19884;BME280;10104;50.732;10.174;2024-02-21T06:33:26;98326.84;;;6.47;100.00
19884;BME280;10104;50.732;10.174;2024-02-21T06:36:06;98327.34;;;6.50;100.00
19884;BME280;10104;50.732;10.174;2024-02-21T06:38:46;98336.22;;;6.49;100.00
19884;BME280;10104;50.732;10.174;2024-02-21T06:41:26;98343.81;;;6.53;100.00
19884;BME280;10104;50.732;10.174;2024-02-21T06:44:07;98332.34;;;6.54;100.00
19884;BME280;10104;50.732;10.174;2024-02-21T06:46:47;98330.66;;;6.53;100.00
19884;BME280;10104;50.732;10.174;2024-02-21T06:49:27;98339.44;;;6.61;100.00
19884;BME280;10104;50.732;10.174;2024-02-21T06:52:07;98330.56;;;6.62;100.00
19884;BME280;10104;50.732;10.174;2024-02-21T06:54:47;98336.81;;;6.61;100.00
19884;BME280;10104;50.732;10.174;2024-02-21T06:57:29;98338.63;;;6.61;100.00
19884;BME280;10104;50.732;10.174;2024-02-21T07:00:09;98328.91;;;6.61;100.00
19884;BME280;10104;50.732;10.174;2024-02-21T07:02:50;98326.50;;;6.68;100.00
19884;BME280;10104;50.732;10.174;2024-02-21T07:05:30;98320.06;;;6.62;100.00
19884;BME280;10104;50.732;10.174;2024-02-21T07:08:10;98325.16;;;6.64;100.00
19884;BME280;10104;50.732;10.174;2024-02-21T07:10:50;98323.38;;;6.64;100.00
19884;BME280;10104;50.732;10.174;2024-02-21T07:13:32;98322.06;;;6.68;100.00
19884;BME280;10104;50.732;10.174;2024-02-21T07:16:12;98321.31;;;6.76;100.00
19884;BME280;10104;50.732;10.174;2024-02-21T07:18:52;98330.72;;;6.78;100.00
19884;BME280;10104;50.732;10.174;2024-02-21T07:21:32;98334.00;;;6.80;100.00
19884;BME280;10104;50.732;10.174;2024-02-21T07:24:13;98345.22;;;6.82;100.00
19884;BME280;10104;50.732;10.174;2024-02-21T07:26:53;98345.06;;;6.84;100.00
19884;BME280;10104;50.732;10.174;2024-02-21T07:29:33;98349.28;;;6.77;100.00
19884;BME280;10104;50.732;10.174;2024-02-21T07:32:13;98350.47;;;6.82;100.00
19884;BME280;10104;50.732;10.174;2024-02-21T07:34:53;98350.25;;;6.76;100.00
19884;BME280;10104;50.732;10.174;2024-02-21T07:37:34;98339.63;;;6.85;100.00
19884;BME280;10104;50.732;10.174;2024-02-21T07:40:16;98340.41;;;6.78;100.00
19884;BME280;10104;50.732;10.174;2024-02-21T07:42:56;98340.72;;;6.75;100.00
19884;BME280;10104;50.732;10.174;2024-02-21T07:45:36;98337.84;;;6.68;100.00
19884;BME280;10104;50.732;10.174;2024-02-21T07:48:18;98347.78;;;6.74;100.00
19884;BME280;10104;50.732;10.174;2024-02-21T07:50:58;98337.94;;;6.76;100.00
19884;BME280;10104;50.732;10.174;2024-02-21T07:53:39;98333.44;;;6.69;100.00
19884;BME280;10104;50.732;10.174;2024-02-21T07:56:21;98339.16;;;6.64;100.00
19884;BME280;10104;50.732;10.174;2024-02-21T07:59:01;98340.19;;;6.71;100.00
19884;BME280;10104;50.732;10.174;2024-02-21T08:01:42;98339.66;;;6.68;100.00
19884;BME280;10104;50.732;10.174;2024-02-21T08:04:25;98335.59;;;6.73;100.00
19884;BME280;10104;50.732;10.174;2024-02-21T08:07:05;98334.31;;;6.77;100.00
19884;BME280;10104;50.732;10.174;2024-02-21T08:09:46;98320.47;;;6.75;100.00
19884;BME280;10104;50.732;10.174;2024-02-21T08:12:26;98314.25;;;6.76;100.00
19884;BME280;10104;50.732;10.174;2024-02-21T08:15:07;98314.00;;;6.87;100.00
19884;BME280;10104;50.732;10.174;2024-02-21T08:17:50;98310.25;;;6.90;100.00
19884;BME280;10104;50.732;10.174;2024-02-21T08:20:30;98307.25;;;6.85;100.00
19884;BME280;10104;50.732;10.174;2024-02-21T08:23:10;98310.75;;;6.94;100.00
19884;BME280;10104;50.732;10.174;2024-02-21T08:25:51;98310.06;;;6.91;100.00
19884;BME280;10104;50.732;10.174;2024-02-21T08:28:31;98311.06;;;6.90;100.00
19884;BME280;10104;50.732;10.174;2024-02-21T08:31:18;98315.19;;;6.93;100.00
19884;BME280;10104;50.732;10.174;2024-02-21T08:33:58;98312.50;;;6.85;100.00
19884;BME280;10104;50.732;10.174;2024-02-21T08:36:45;98310.53;;;6.87;100.00
19884;BME280;10104;50.732;10.174;2024-02-21T08:39:24;98304.66;;;6.93;100.00
19884;BME280;10104;50.732;10.174;2024-02-21T08:42:05;98312.69;;;6.91;100.00
19884;BME280;10104;50.732;10.174;2024-02-21T08:44:45;98303.66;;;6.94;100.00
19884;BME280;10104;50.732;10.174;2024-02-21T08:47:25;98290.44;;;7.12;100.00
19884;BME280;10104;50.732;10.174;2024-02-21T08:50:06;98293.28;;;7.18;100.00
19884;BME280;10104;50.732;10.174;2024-02-21T08:52:58;98285.22;;;7.20;100.00
19884;BME280;10104;50.732;10.174;2024-02-21T08:55:38;98271.63;;;7.32;100.00
19884;BME280;10104;50.732;10.174;2024-02-21T08:58:19;98280.59;;;7.56;100.00
19884;BME280;10104;50.732;10.174;2024-02-21T09:01:02;98272.88;;;7.62;100.00
19884;BME280;10104;50.732;10.174;2024-02-21T09:03:43;98271.22;;;7.61;100.00
19884;BME280;10104;50.732;10.174;2024-02-21T09:06:23;98263.47;;;7.60;100.00
19884;BME280;10104;50.732;10.174;2024-02-21T09:09:03;98265.16;;;7.69;100.00
19884;BME280;10104;50.732;10.174;2024-02-21T09:11:44;98256.50;;;8.01;100.00
19884;BME280;10104;50.732;10.174;2024-02-21T09:14:24;98257.81;;;8.21;100.00
19884;BME280;10104;50.732;10.174;2024-02-21T09:17:04;98264.81;;;8.38;100.00
19884;BME280;10104;50.732;10.174;2024-02-21T09:19:45;98254.91;;;8.48;100.00
19884;BME280;10104;50.732;10.174;2024-02-21T09:22:25;98260.84;;;8.50;100.00
19884;BME280;10104;50.732;10.174;2024-02-21T09:25:06;98246.13;;;8.72;100.00
19884;BME280;10104;50.732;10.174;2024-02-21T09:27:46;98231.88;;;8.98;100.00
19884;BME280;10104;50.732;10.174;2024-02-21T09:30:26;98228.72;;;9.10;100.00
19884;BME280;10104;50.732;10.174;2024-02-21T09:33:06;98224.28;;;9.42;94.62
19884;BME280;10104;50.732;10.174;2024-02-21T09:35:47;98222.09;;;9.14;92.94
19884;BME280;10104;50.732;10.174;2024-02-21T09:38:28;98216.41;;;8.78;86.82
19884;BME280;10104;50.732;10.174;2024-02-21T09:41:16;98208.47;;;8.86;87.14
19884;BME280;10104;50.732;10.174;2024-02-21T09:44:06;98214.00;;;9.16;89.58
19884;BME280;10104;50.732;10.174;2024-02-21T09:46:56;98214.94;;;9.31;87.27
19884;BME280;10104;50.732;10.174;2024-02-21T09:49:40;98208.03;;;9.22;86.89
19884;BME280;10104;50.732;10.174;2024-02-21T09:52:21;98208.97;;;9.37;85.79
19884;BME280;10104;50.732;10.174;2024-02-21T09:55:03;98219.34;;;9.69;85.95
19884;BME280;10104;50.732;10.174;2024-02-21T09:57:45;98212.16;;;9.86;84.74
19884;BME280;10104;50.732;10.174;2024-02-21T10:00:25;98209.47;;;10.17;81.84
19884;BME280;10104;50.732;10.174;2024-02-21T10:03:06;98213.56;;;10.20;79.73
19884;BME280;10104;50.732;10.174;2024-02-21T10:05:49;98216.53;;;9.94;78.84
19884;BME280;10104;50.732;10.174;2024-02-21T10:08:32;98209.00;;;9.60;80.89
19884;BME280;10104;50.732;10.174;2024-02-21T10:11:22;98200.34;;;9.74;82.22
19884;BME280;10104;50.732;10.174;2024-02-21T10:14:07;98200.22;;;9.67;80.98
19884;BME280;10104;50.732;10.174;2024-02-21T10:16:56;98197.94;;;9.87;80.32
19884;BME280;10104;50.732;10.174;2024-02-21T10:19:36;98194.13;;;9.82;81.80
19884;BME280;10104;50.732;10.174;2024-02-21T10:22:17;98198.50;;;9.97;80.01
19884;BME280;10104;50.732;10.174;2024-02-21T10:25:07;98197.59;;;9.59;80.69
19884;BME280;10104;50.732;10.174;2024-02-21T10:27:48;98195.38;;;9.71;79.11
19884;BME280;10104;50.732;10.174;2024-02-21T10:30:28;98199.09;;;9.31;78.40
19884;BME280;10104;50.732;10.174;2024-02-21T10:33:08;98197.16;;;9.17;80.99
19884;BME280;10104;50.732;10.174;2024-02-21T10:35:49;98195.34;;;9.09;80.64
19884;BME280;10104;50.732;10.174;2024-02-21T10:38:30;98187.00;;;8.98;82.72
19884;BME280;10104;50.732;10.174;2024-02-21T10:41:13;98186.69;;;8.92;83.12
19884;BME280;10104;50.732;10.174;2024-02-21T10:43:54;98182.44;;;9.22;83.98
19884;BME280;10104;50.732;10.174;2024-02-21T10:46:36;98167.19;;;9.32;82.63
19884;BME280;10104;50.732;10.174;2024-02-21T10:49:23;98159.59;;;9.60;82.89
19884;BME280;10104;50.732;10.174;2024-02-21T10:52:31;98152.41;;;10.14;79.95
19884;BME280;10104;50.732;10.174;2024-02-21T10:55:29;98149.25;;;9.96;75.30
19884;BME280;10104;50.732;10.174;2024-02-21T10:58:12;98148.72;;;10.38;78.58
19884;BME280;10104;50.732;10.174;2024-02-21T11:00:54;98145.91;;;10.40;77.32
19884;BME280;10104;50.732;10.174;2024-02-21T11:03:34;98142.56;;;10.61;73.68
19884;BME280;10104;50.732;10.174;2024-02-21T11:06:17;98128.84;;;10.86;74.33
19884;BME280;10104;50.732;10.174;2024-02-21T11:09:09;98134.16;;;10.57;74.96
19884;BME280;10104;50.732;10.174;2024-02-21T11:11:50;98136.63;;;10.73;73.91
19884;BME280;10104;50.732;10.174;2024-02-21T11:14:31;98134.53;;;10.83;73.71
19884;BME280;10104;50.732;10.174;2024-02-21T11:17:19;98115.16;;;10.83;73.15
19884;BME280;10104;50.732;10.174;2024-02-21T11:20:14;98102.81;;;10.90;71.86
19884;BME280;10104;50.732;10.174;2024-02-21T11:22:55;98100.16;;;10.90;70.94
19884;BME280;10104;50.732;10.174;2024-02-21T11:25:36;98084.41;;;10.67;69.13
19884;BME280;10104;50.732;10.174;2024-02-21T11:28:25;98085.38;;;10.81;72.00
19884;BME280;10104;50.732;10.174;2024-02-21T11:31:13;98072.00;;;11.04;71.95
19884;BME280;10104;50.732;10.174;2024-02-21T11:33:54;98069.03;;;10.92;68.91
19884;BME280;10104;50.732;10.174;2024-02-21T11:36:34;98063.50;;;10.93;70.10
19884;BME280;10104;50.732;10.174;2024-02-21T11:39:25;98062.16;;;10.98;69.08
19884;BME280;10104;50.732;10.174;2024-02-21T11:42:07;98039.25;;;11.11;68.59
19884;BME280;10104;50.732;10.174;2024-02-21T11:44:47;98041.41;;;11.01;67.31
19884;BME280;10104;50.732;10.174;2024-02-21T11:47:28;98036.59;;;11.11;69.33
19884;BME280;10104;50.732;10.174;2024-02-21T11:50:10;98035.25;;;11.15;68.99
19884;BME280;10104;50.732;10.174;2024-02-21T11:52:54;98027.53;;;11.20;68.41
19884;BME280;10104;50.732;10.174;2024-02-21T11:55:34;98023.00;;;11.35;67.46
19884;BME280;10104;50.732;10.174;2024-02-21T11:58:15;98019.69;;;11.12;67.76
19884;BME280;10104;50.732;10.174;2024-02-21T12:00:56;98014.31;;;11.06;68.32
19884;BME280;10104;50.732;10.174;2024-02-21T12:03:36;98009.88;;;11.27;68.43
19884;BME280;10104;50.732;10.174;2024-02-21T12:06:17;98001.16;;;11.33;67.66
19884;BME280;10104;50.732;10.174;2024-02-21T12:09:01;97995.00;;;11.54;68.15
19884;BME280;10104;50.732;10.174;2024-02-21T12:11:42;97993.41;;;11.11;64.22
19884;BME280;10104;50.732;10.174;2024-02-21T12:14:24;97981.72;;;11.26;64.75
19884;BME280;10104;50.732;10.174;2024-02-21T12:17:05;97976.25;;;11.28;63.98
19884;BME280;10104;50.732;10.174;2024-02-21T12:19:45;97968.94;;;11.36;65.41
19884;BME280;10104;50.732;10.174;2024-02-21T12:22:26;97962.53;;;11.24;61.84
19884;BME280;10104;50.732;10.174;2024-02-21T12:25:17;97950.44;;;11.43;63.73
19884;BME280;10104;50.732;10.174;2024-02-21T12:27:58;97956.69;;;11.29;62.90
19884;BME280;10104;50.732;10.174;2024-02-21T12:30:40;97955.56;;;11.45;62.96
19884;BME280;10104;50.732;10.174;2024-02-21T12:33:21;97952.50;;;11.41;61.76
19884;BME280;10104;50.732;10.174;2024-02-21T12:36:01;97939.78;;;11.09;61.57
19884;BME280;10104;50.732;10.174;2024-02-21T12:38:41;97939.81;;;11.15;61.70
19884;BME280;10104;50.732;10.174;2024-02-21T12:41:22;97935.66;;;11.27;62.17
19884;BME280;10104;50.732;10.174;2024-02-21T12:44:06;97932.47;;;11.39;63.30
19884;BME280;10104;50.732;10.174;2024-02-21T12:46:47;97918.69;;;11.50;63.67
19884;BME280;10104;50.732;10.174;2024-02-21T12:49:31;97924.44;;;11.53;62.27
19884;BME280;10104;50.732;10.174;2024-02-21T12:52:12;97916.47;;;11.81;62.15
19884;BME280;10104;50.732;10.174;2024-02-21T12:54:53;97909.84;;;11.98;62.05
19884;BME280;10104;50.732;10.174;2024-02-21T12:57:36;97900.91;;;12.06;62.00
19884;BME280;10104;50.732;10.174;2024-02-21T13:00:17;97907.47;;;12.16;63.08
19884;BME280;10104;50.732;10.174;2024-02-21T13:02:57;97908.66;;;12.07;61.08
19884;BME280;10104;50.732;10.174;2024-02-21T13:05:37;97896.72;;;12.31;61.75
19884;BME280;10104;50.732;10.174;2024-02-21T13:08:18;97891.19;;;12.26;60.20
19884;BME280;10104;50.732;10.174;2024-02-21T13:11:01;97892.56;;;12.09;60.50
19884;BME280;10104;50.732;10.174;2024-02-21T13:13:42;97889.97;;;12.35;62.13
19884;BME280;10104;50.732;10.174;2024-02-21T13:16:22;97877.69;;;12.21;61.30
19884;BME280;10104;50.732;10.174;2024-02-21T13:19:02;97880.28;;;12.08;60.81
19884;BME280;10104;50.732;10.174;2024-02-21T13:21:43;97889.28;;;12.13;63.17
19884;BME280;10104;50.732;10.174;2024-02-21T13:24:23;97888.28;;;12.14;65.02
19884;BME280;10104;50.732;10.174;2024-02-21T13:27:03;97882.53;;;12.11;62.84
19884;BME280;10104;50.732;10.174;2024-02-21T13:29:43;97883.44;;;11.56;59.30
19884;BME280;10104;50.732;10.174;2024-02-21T13:32:25;97882.59;;;11.77;59.05
19884;BME280;10104;50.732;10.174;2024-02-21T13:35:05;97879.81;;;11.63;60.08
19884;BME280;10104;50.732;10.174;2024-02-21T13:37:46;97880.75;;;11.77;58.77
19884;BME280;10104;50.732;10.174;2024-02-21T13:40:26;97875.84;;;11.81;60.30
19884;BME280;10104;50.732;10.174;2024-02-21T13:43:06;97872.25;;;11.60;59.19
19884;BME280;10104;50.732;10.174;2024-02-21T13:45:57;97869.25;;;11.70;61.52
19884;BME280;10104;50.732;10.174;2024-02-21T13:48:42;97875.47;;;11.56;61.15
19884;BME280;10104;50.732;10.174;2024-02-21T13:51:22;97876.81;;;11.39;60.83
19884;BME280;10104;50.732;10.174;2024-02-21T13:54:03;97868.69;;;11.19;60.18
19884;BME280;10104;50.732;10.174;2024-02-21T13:56:44;97854.13;;;11.36;60.36
19884;BME280;10104;50.732;10.174;2024-02-21T13:59:24;97848.59;;;11.31;61.23
19884;BME280;10104;50.732;10.174;2024-02-21T14:02:06;97840.81;;;11.23;60.34
19884;BME280;10104;50.732;10.174;2024-02-21T14:04:49;97827.56;;;11.23;60.81